Time;durP1;ratioP1;P1;durP2;ratioP2;P2;SDS_P1;SDS_P2;PMS_P1;PMS_P2;Temp;Humidity;BMP_temperature;BMP_pressure;BME280_temperature;BME280_humidity;BME280_pressure;Samples;Min_cycle;Max_cycle;Signal;HPM_P1;HPM_P2
2022/12/07 00:01:46;;;;;;;25.80;14.93;;;;;;;2.93;100.00;100720.97;5014069;28;20037;-74
2022/12/07 00:04:17;;;;;;;23.95;14.38;;;;;;;2.93;100.00;100715.81;5031226;28;20064;-74
2022/12/07 00:06:47;;;;;;;22.65;14.00;;;;;;;2.95;100.00;100709.84;5017095;28;20048;-74
2022/12/07 00:09:17;;;;;;;20.92;13.75;;;;;;;2.94;100.00;100702.91;5014158;28;20042;-74
2022/12/07 00:11:45;;;;;;;24.67;13.43;;;;;;;2.94;100.00;100699.47;5015436;28;20484;-74
2022/12/07 00:14:15;;;;;;;19.17;12.60;;;;;;;2.96;100.00;100701.25;5031246;28;20052;-74
2022/12/07 00:16:42;;;;;;;27.02;13.93;;;;;;;2.98;100.00;100693.50;5013604;28;20052;-74
2022/12/07 00:19:12;;;;;;;24.65;13.45;;;;;;;3.00;100.00;100689.28;5012949;28;20042;-74
2022/12/07 00:21:38;;;;;;;28.17;14.18;;;;;;;3.03;100.00;100680.72;5016108;28;20056;-74
2022/12/07 00:24:06;;;;;;;23.67;12.95;;;;;;;3.13;100.00;100680.94;5013725;28;20468;-74
2022/12/07 00:26:40;;;;;;;21.63;13.43;;;;;;;3.09;100.00;100680.81;5017423;28;20041;-74
2022/12/07 00:29:21;;;;;;;21.98;12.13;;;;;;;3.07;100.00;100680.78;5026875;28;20045;-74
2022/12/07 00:31:48;;;;;;;20.50;12.38;;;;;;;3.17;100.00;100673.22;5015494;28;20507;-75
2022/12/07 00:34:21;;;;;;;24.83;12.88;;;;;;;3.17;100.00;100671.53;5029567;28;20059;-74
2022/12/07 00:36:49;;;;;;;23.40;13.23;;;;;;;3.14;100.00;100667.16;5026594;28;20049;-75
2022/12/07 00:39:16;;;;;;;22.02;12.65;;;;;;;3.12;100.00;100678.31;5017378;28;20041;-74
2022/12/07 00:41:42;;;;;;;19.90;12.13;;;;;;;3.16;100.00;100674.94;5016120;28;20053;-74
2022/12/07 00:44:09;;;;;;;19.45;11.73;;;;;;;3.11;100.00;100672.25;5014138;28;20052;-74
2022/12/07 00:46:35;;;;;;;20.60;11.82;;;;;;;3.17;100.00;100666.34;5015053;28;20057;-74
2022/12/07 00:49:01;;;;;;;22.65;11.48;;;;;;;3.18;100.00;100670.69;5030104;28;20338;-73
2022/12/07 00:51:28;;;;;;;19.98;11.77;;;;;;;3.16;100.00;100663.75;5014618;28;20037;-74
2022/12/07 00:53:55;;;;;;;18.75;11.20;;;;;;;3.20;100.00;100663.81;5014608;28;20404;-74
2022/12/07 00:56:27;;;;;;;20.45;12.23;;;;;;;3.21;100.00;100660.41;5014306;28;20095;-74
2022/12/07 00:58:59;;;;;;;16.63;10.95;;;;;;;3.23;100.00;100658.69;5012439;28;20688;-74
2022/12/07 01:01:31;;;;;;;18.00;11.38;;;;;;;3.23;100.00;100663.00;4996853;28;20056;-74
2022/12/07 01:03:58;;;;;;;18.38;11.73;;;;;;;3.23;100.00;100657.84;5018835;28;20049;-74
2022/12/07 01:06:26;;;;;;;23.05;13.35;;;;;;;3.31;100.00;100658.88;5015648;28;20052;-74
2022/12/07 01:08:52;;;;;;;19.75;12.15;;;;;;;3.29;100.00;100647.63;5015777;28;20104;-74
2022/12/07 01:11:23;;;;;;;23.30;13.13;;;;;;;3.31;100.00;100653.69;5018249;28;20049;-74
2022/12/07 01:13:56;;;;;;;20.17;12.93;;;;;;;3.31;100.00;100651.09;5011893;28;20050;-74
2022/12/07 01:16:25;;;;;;;26.77;15.27;;;;;;;3.32;100.00;100650.28;5014089;28;20123;-74
2022/12/07 01:18:55;;;;;;;21.63;13.30;;;;;;;3.34;100.00;100653.78;5029888;28;20048;-73
2022/12/07 01:21:29;;;;;;;28.27;14.65;;;;;;;3.34;100.00;100651.19;5013935;28;20507;-74
2022/12/07 01:23:58;;;;;;;25.13;14.43;;;;;;;3.34;100.00;100653.78;5013577;28;20106;-73
2022/12/07 01:26:26;;;;;;;24.90;15.27;;;;;;;3.30;100.00;100654.56;5016819;28;20045;-74
2022/12/07 01:28:54;;;;;;;22.80;14.02;;;;;;;3.30;100.00;100658.00;5024563;28;20040;-74
2022/12/07 01:31:24;;;;;;;31.48;14.85;;;;;;;3.27;100.00;100657.06;5014167;28;20132;-74
2022/12/07 01:33:54;;;;;;;24.92;16.27;;;;;;;3.23;100.00;100650.94;5010845;28;20049;-73
2022/12/07 01:36:24;;;;;;;25.67;15.18;;;;;;;3.27;100.00;100649.31;5011528;28;20053;-74
2022/12/07 01:38:56;;;;;;;23.02;14.10;;;;;;;3.25;100.00;100649.28;5028706;28;20061;-74
2022/12/07 01:41:25;;;;;;;24.83;16.55;;;;;;;3.30;100.00;100645.06;5006070;28;20084;-74
2022/12/07 01:44:16;;;;;;;27.33;16.42;;;;;;;3.25;100.00;100635.47;5010030;28;20042;-74
2022/12/07 01:46:46;;;;;;;23.00;14.32;;;;;;;3.21;100.00;100633.66;5023656;28;20129;-74
2022/12/07 01:49:36;;;;;;;21.02;13.50;;;;;;;3.24;100.00;100638.91;5027097;28;20045;-74
2022/12/07 01:52:29;;;;;;;25.77;15.35;;;;;;;3.19;100.00;100625.84;5030419;28;20128;-74
2022/12/07 01:55:01;;;;;;;23.13;14.45;;;;;;;3.14;100.00;100623.19;5010411;28;20054;-74
2022/12/07 01:57:28;;;;;;;20.25;13.32;;;;;;;3.07;100.00;100625.63;5010071;28;20079;-76
2022/12/07 01:59:57;;;;;;;19.15;14.27;;;;;;;3.00;100.00;100636.66;5030718;28;20075;-74
2022/12/07 02:02:31;;;;;;;22.70;13.63;;;;;;;2.93;100.00;100641.72;5010727;28;20064;-73
2022/12/07 02:05:00;;;;;;;24.35;14.95;;;;;;;2.86;100.00;100631.19;5023279;28;20049;-74
2022/12/07 02:07:28;;;;;;;23.05;14.93;;;;;;;2.88;100.00;100635.56;5011080;28;20554;-73
2022/12/07 02:09:55;;;;;;;24.70;15.38;;;;;;;2.93;100.00;100633.97;5015741;28;20056;-74
2022/12/07 02:12:24;;;;;;;20.15;13.68;;;;;;;2.93;100.00;100631.38;5011329;28;20057;-75
2022/12/07 02:14:52;;;;;;;23.23;14.27;;;;;;;2.88;100.00;100627.81;5011433;28;20132;-74
2022/12/07 02:18:00;;;;;;;21.40;14.25;;;;;;;2.90;100.00;100625.25;5018972;28;20045;-73
2022/12/07 02:21:07;;;;;;;24.23;13.70;;;;;;;2.74;100.00;100622.31;5014752;28;20468;-73
2022/12/07 02:24:18;;;;;;;20.77;12.07;;;;;;;2.59;100.00;100617.66;5013865;28;20045;-73
2022/12/07 02:26:56;;;;;;;25.23;15.00;;;;;;;2.58;100.00;100626.28;5035603;28;20036;-74
2022/12/07 02:29:40;;;;;;;22.40;13.98;;;;;;;2.69;100.00;100617.91;5016837;28;20042;-74
2022/12/07 02:32:22;;;;;;;21.08;13.65;;;;;;;2.75;100.00;100612.84;5015377;28;20049;-73
2022/12/07 02:35:02;;;;;;;19.58;13.55;;;;;;;2.60;100.00;100613.38;5032489;28;20055;-74
2022/12/07 02:37:55;;;;;;;22.77;13.98;;;;;;;2.53;100.00;100608.91;5030417;28;20049;-75
2022/12/07 02:40:32;;;;;;;23.70;14.07;;;;;;;2.49;100.00;100607.97;5016411;28;20544;-75
2022/12/07 02:43:09;;;;;;;23.25;13.00;;;;;;;2.51;100.00;100611.44;5022459;28;20040;-74
2022/12/07 02:45:40;;;;;;;19.73;12.30;;;;;;;2.47;100.00;100609.63;5010732;28;20408;-75
2022/12/07 02:48:08;;;;;;;18.33;11.90;;;;;;;2.38;100.00;100605.13;5025094;28;20492;-75
2022/12/07 02:50:34;;;;;;;19.40;12.68;;;;;;;2.35;100.00;100601.59;5024917;28;20523;-75
2022/12/07 02:53:01;;;;;;;19.80;12.48;;;;;;;2.51;100.00;100608.88;5029377;28;20503;-74
2022/12/07 02:55:38;;;;;;;20.60;13.45;;;;;;;2.50;100.00;100608.84;5026634;28;20048;-75
2022/12/07 02:58:33;;;;;;;21.10;12.95;;;;;;;2.46;100.00;100600.13;5023136;28;20044;-75
2022/12/07 03:01:12;;;;;;;19.50;12.68;;;;;;;2.56;100.00;100602.09;5014425;28;20040;-74
2022/12/07 03:03:45;;;;;;;21.17;12.80;;;;;;;2.64;100.00;100605.72;5024933;28;20408;-75
2022/12/07 03:06:43;;;;;;;18.02;11.80;;;;;;;2.67;100.00;100604.91;5034406;28;20045;-74
2022/12/07 03:09:23;;;;;;;24.42;12.88;;;;;;;2.73;100.00;100606.78;5025366;28;20049;-74
2022/12/07 03:12:02;;;;;;;17.98;12.07;;;;;;;2.70;100.00;100609.28;5011943;28;20107;-76
2022/12/07 03:14:40;;;;;;;17.30;10.70;;;;;;;2.70;100.00;100601.53;5029192;28;20037;-74
2022/12/07 03:17:14;;;;;;;19.95;11.60;;;;;;;2.78;100.00;100602.59;5015843;28;20053;-74
2022/12/07 03:19:42;;;;;;;;;;;;;;;2.82;100.00;100596.66;5014107;28;20404;-74
2022/12/07 03:22:12;;;;;;;17.48;11.30;;;;;;;2.82;100.00;100594.06;5016568;28;19936;-75
2022/12/07 03:24:56;;;;;;;18.13;11.60;;;;;;;2.80;100.00;100590.56;5014015;28;20049;-74
2022/12/07 03:27:33;;;;;;;18.50;11.45;;;;;;;2.73;100.00;100586.09;5029609;28;20049;-74
2022/12/07 03:30:11;;;;;;;16.63;11.20;;;;;;;2.78;100.00;100581.91;5015334;28;20037;-74
2022/12/07 03:32:59;;;;;;;15.35;10.45;;;;;;;2.76;100.00;100593.91;5017017;28;20042;-74
2022/12/07 03:35:41;;;;;;;15.65;9.57;;;;;;;2.76;100.00;100588.75;5018256;28;20041;-74
2022/12/07 03:38:37;;;;;;;15.52;10.27;;;;;;;2.73;100.00;100589.56;5013132;28;20052;-74
2022/12/07 03:41:14;;;;;;;16.20;9.55;;;;;;;2.71;100.00;100586.06;5020780;28;20077;-74
2022/12/07 03:43:42;;;;;;;15.00;9.32;;;;;;;2.65;100.00;100586.78;5018257;28;20044;-74
2022/12/07 03:46:42;;;;;;;15.95;9.07;;;;;;;2.64;100.00;100586.75;5013952;28;20041;-74
2022/12/07 03:49:21;;;;;;;15.65;10.30;;;;;;;2.64;100.00;100579.00;5030858;28;20091;-75
2022/12/07 03:52:10;;;;;;;15.65;8.45;;;;;;;2.65;100.00;100591.09;5004453;28;20053;-74
2022/12/07 03:54:52;;;;;;;15.00;8.57;;;;;;;2.56;100.00;100586.59;5034476;28;20392;-75
2022/12/07 03:57:20;;;;;;;16.98;8.75;;;;;;;2.52;100.00;100600.28;4997713;28;20064;-75
2022/12/07 03:59:47;;;;;;;16.45;8.93;;;;;;;2.58;100.00;100599.53;5015279;28;20417;-73
2022/12/07 04:02:15;;;;;;;15.10;8.77;;;;;;;2.58;100.00;100597.84;5013783;28;20041;-75
2022/12/07 04:04:43;;;;;;;13.77;8.95;;;;;;;2.62;100.00;100598.78;5013823;28;20476;-76
2022/12/07 04:07:10;;;;;;;16.83;9.07;;;;;;;2.62;100.00;100597.06;5016404;28;20164;-73
2022/12/07 04:09:36;;;;;;;20.90;9.40;;;;;;;2.63;100.00;100600.53;5018439;28;20088;-74
2022/12/07 04:12:03;;;;;;;15.10;9.48;;;;;;;2.62;100.00;100606.53;5013845;28;20049;-75
2022/12/07 04:14:30;;;;;;;17.90;9.63;;;;;;;2.61;100.00;100600.50;5015721;28;20060;-74
2022/12/07 04:16:58;;;;;;;14.85;8.90;;;;;;;2.65;100.00;100596.28;5014938;28;20049;-74
2022/12/07 04:19:28;;;;;;;15.50;8.55;;;;;;;2.58;100.00;100603.03;5014180;28;20048;-74
2022/12/07 04:21:57;;;;;;;14.43;8.75;;;;;;;2.58;100.00;100604.72;5015004;28;20072;-74
2022/12/07 04:24:24;;;;;;;18.67;10.18;;;;;;;2.57;100.00;100596.09;5032299;28;20045;-74
2022/12/07 04:26:50;;;;;;;17.35;9.35;;;;;;;2.60;100.00;100596.16;5023346;28;20056;-74
2022/12/07 04:29:18;;;;;;;17.80;9.15;;;;;;;2.52;100.00;100597.69;5014412;28;20051;-74
2022/12/07 04:31:45;;;;;;;14.38;8.63;;;;;;;2.52;100.00;100595.13;4999151;28;20067;-74
2022/12/07 04:34:13;;;;;;;15.30;9.48;;;;;;;2.53;100.00;100596.88;5012640;28;20045;-74
2022/12/07 04:36:40;;;;;;;17.17;9.23;;;;;;;2.54;100.00;100590.84;5016967;28;20049;-74
2022/12/07 04:39:10;;;;;;;16.02;9.52;;;;;;;2.55;100.00;100586.56;5029803;28;20037;-74
2022/12/07 04:41:36;;;;;;;17.38;9.77;;;;;;;2.54;100.00;100597.72;5032064;28;20053;-74
2022/12/07 04:44:07;;;;;;;19.52;9.20;;;;;;;2.53;100.00;100589.13;5012243;28;20128;-74
2022/12/07 04:46:34;;;;;;;15.70;9.52;;;;;;;2.53;100.00;100586.53;4997147;28;20080;-74
2022/12/07 04:49:00;;;;;;;16.95;8.27;;;;;;;2.58;100.00;100594.38;5009742;28;20499;-74
2022/12/07 04:51:29;;;;;;;18.38;8.52;;;;;;;2.52;100.00;100587.38;5013395;28;20045;-74
2022/12/07 04:53:57;;;;;;;13.88;8.68;;;;;;;2.46;100.00;100587.22;5010953;28;20068;-74
2022/12/07 04:56:24;;;;;;;14.65;8.57;;;;;;;2.36;100.00;100577.50;5014408;28;20072;-74
2022/12/07 04:58:53;;;;;;;15.85;8.23;;;;;;;2.39;100.00;100587.94;5012163;28;20041;-75
2022/12/07 05:01:21;;;;;;;21.92;11.10;;;;;;;2.29;100.00;100579.06;5031178;28;20058;-75
2022/12/07 05:03:48;;;;;;;17.67;8.68;;;;;;;2.24;100.00;100578.97;5013150;28;20460;-75
2022/12/07 05:06:15;;;;;;;16.60;9.13;;;;;;;2.17;100.00;100577.06;5014451;28;20045;-74
2022/12/07 05:08:42;;;;;;;19.20;10.02;;;;;;;2.21;100.00;100581.47;5031837;28;20056;-73
2022/12/07 05:11:37;;;;;;;16.27;8.55;;;;;;;2.19;100.00;100578.00;5016985;28;20053;-75
2022/12/07 05:13:58;;;;;;;16.42;9.30;;;;;;;2.23;100.00;100584.97;5028636;28;20607;-74
2022/12/07 05:16:25;;;;;;;16.27;9.43;;;;;;;2.27;100.00;100578.19;5015594;28;20049;-75
2022/12/07 05:18:51;;;;;;;16.25;8.10;;;;;;;2.27;100.00;100576.47;5012147;28;20206;-74
2022/12/07 05:21:18;;;;;;;19.50;8.73;;;;;;;2.34;100.00;100577.47;5013156;28;20049;-74
2022/12/07 05:23:44;;;;;;;16.02;8.88;;;;;;;2.27;100.00;100578.19;5009457;28;20128;-74
2022/12/07 05:26:11;;;;;;;15.00;7.95;;;;;;;2.22;100.00;100582.38;5019122;28;20118;-74
2022/12/07 05:28:37;;;;;;;13.85;7.10;;;;;;;2.17;100.00;100587.41;5016578;28;20443;-74
2022/12/07 05:31:04;;;;;;;17.42;8.05;;;;;;;2.06;100.00;100582.00;5013700;28;20132;-74
2022/12/07 05:33:30;;;;;;;14.95;8.48;;;;;;;2.03;100.00;100586.19;4997931;28;20053;-74
2022/12/07 05:35:57;;;;;;;14.68;7.25;;;;;;;2.03;100.00;100584.47;5015991;28;20044;-74
2022/12/07 05:38:24;;;;;;;16.02;7.93;;;;;;;2.03;100.00;100579.31;5016054;28;20041;-74
2022/12/07 05:40:51;;;;;;;16.02;8.68;;;;;;;2.03;100.00;100588.78;5030706;28;20049;-74
2022/12/07 05:43:17;;;;;;;14.73;7.30;;;;;;;2.10;100.00;100594.13;5028817;28;20578;-74
2022/12/07 05:45:44;;;;;;;15.90;8.73;;;;;;;2.13;100.00;100586.44;5013518;28;20053;-73
2022/12/07 05:48:10;;;;;;;16.60;8.07;;;;;;;2.11;100.00;100589.84;5027625;28;20045;-74
2022/12/07 05:50:37;;;;;;;14.80;7.13;;;;;;;2.12;100.00;100584.69;5012947;28;20808;-74
2022/12/07 05:53:03;;;;;;;19.90;8.73;;;;;;;2.15;100.00;100581.31;5028242;28;20049;-74
2022/12/07 05:55:30;;;;;;;12.75;6.93;;;;;;;2.19;100.00;100590.03;5033504;28;20349;-75
2022/12/07 06:00:40;;;;;;;17.00;7.35;;;;;;;2.23;100.00;100584.97;4999919;28;20101;-74
2022/12/07 06:03:06;;;;;;;13.60;6.60;;;;;;;2.27;100.00;100576.47;5016106;28;20037;-74
2022/12/07 06:05:32;;;;;;;13.63;6.90;;;;;;;2.30;100.00;100580.81;5012672;28;20037;-74
2022/12/07 06:07:59;;;;;;;12.73;6.78;;;;;;;2.31;100.00;100585.16;5030802;28;20069;-73
2022/12/07 06:10:25;;;;;;;13.00;5.68;;;;;;;2.34;100.00;100581.78;5020403;28;20068;-74
2022/12/07 06:12:51;;;;;;;20.60;7.65;;;;;;;2.35;100.00;100588.66;5015466;28;20045;-73
2022/12/07 06:15:17;;;;;;;16.48;8.68;;;;;;;2.36;100.00;100582.66;5014040;28;20131;-74
2022/12/07 06:17:44;;;;;;;17.02;7.03;;;;;;;2.35;100.00;100584.41;5010932;28;20056;-74
2022/12/07 06:20:11;;;;;;;18.90;6.60;;;;;;;2.34;100.00;100585.22;5013542;28;20495;-74
2022/12/07 06:22:37;;;;;;;9.45;5.40;;;;;;;2.34;100.00;100585.22;5009568;28;20061;-74
2022/12/07 06:25:04;;;;;;;8.10;5.03;;;;;;;2.35;100.00;100586.09;5015042;28;20503;-74
2022/12/07 06:27:32;;;;;;;12.82;5.93;;;;;;;2.38;100.00;100584.44;5028073;28;20099;-74
2022/12/07 06:29:59;;;;;;;10.65;5.05;;;;;;;2.39;100.00;100591.38;5016612;28;20114;-74
2022/12/07 06:32:26;;;;;;;14.38;7.10;;;;;;;2.39;100.00;100583.63;5027380;28;20049;-75
2022/12/07 06:34:52;;;;;;;17.02;6.63;;;;;;;2.39;100.00;100583.63;4999436;28;20057;-75
2022/12/07 06:37:19;;;;;;;15.23;6.75;;;;;;;2.39;100.00;100593.97;5016965;28;20575;-76
2022/12/07 06:39:45;;;;;;;14.73;8.23;;;;;;;2.39;100.00;100588.78;5013795;28;20113;-76
2022/12/07 06:42:12;;;;;;;15.95;7.25;;;;;;;2.41;100.00;100581.97;5032660;28;20053;-76
2022/12/07 06:44:39;;;;;;;14.52;7.53;;;;;;;2.40;100.00;100587.06;5034901;28;20045;-75
2022/12/07 06:47:07;;;;;;;20.00;8.05;;;;;;;2.38;100.00;100591.34;5016390;28;20044;-74
2022/12/07 06:49:34;;;;;;;19.27;7.78;;;;;;;2.36;100.00;100591.31;5016004;28;20132;-74
2022/12/07 06:52:00;;;;;;;22.33;7.82;;;;;;;2.35;100.00;100589.56;5019657;28;20053;-74
2022/12/07 06:54:27;;;;;;;12.43;6.63;;;;;;;2.33;100.00;100585.19;5035714;28;20154;-74
2022/12/07 06:56:53;;;;;;;19.90;8.45;;;;;;;2.26;100.00;100581.59;5034991;28;20045;-74
2022/12/07 06:59:20;;;;;;;25.20;10.63;;;;;;;2.19;100.00;100593.50;5020164;28;20785;-74
2022/12/07 07:01:49;;;;;;;18.85;8.93;;;;;;;2.14;100.00;100595.94;5018867;28;20053;-74
2022/12/07 07:04:15;;;;;;;9.02;4.32;;;;;;;2.10;100.00;100594.13;5016581;28;20053;-74
2022/12/07 07:06:42;;;;;;;6.93;3.80;;;;;;;2.06;100.00;100589.75;5020163;28;20053;-76
2022/12/07 07:09:09;;;;;;;5.18;3.45;;;;;;;1.98;100.00;100592.13;5004168;28;20033;-74
2022/12/07 07:11:35;;;;;;;6.53;3.90;;;;;;;1.90;100.00;100601.38;5019887;28;20038;-75
2022/12/07 07:14:02;;;;;;;9.48;4.60;;;;;;;1.82;100.00;100600.31;5019030;28;20041;-74
2022/12/07 07:16:31;;;;;;;8.52;4.13;;;;;;;1.81;100.00;100598.56;5034701;28;20102;-75
2022/12/07 07:18:58;;;;;;;6.88;2.75;;;;;;;1.83;100.00;100596.03;5031118;28;20474;-73
2022/12/07 07:21:24;;;;;;;4.80;3.50;;;;;;;1.85;100.00;100607.25;5018309;28;20116;-74
2022/12/07 07:23:51;;;;;;;7.20;2.88;;;;;;;1.86;100.00;100609.00;5033284;28;20057;-74
2022/12/07 07:26:18;;;;;;;8.10;2.78;;;;;;;1.89;100.00;100607.38;5018004;28;20063;-75
2022/12/07 07:28:44;;;;;;;9.15;3.00;;;;;;;1.95;100.00;100609.25;5020999;28;20040;-75
2022/12/07 07:31:11;;;;;;;3.25;1.98;;;;;;;1.98;100.00;100609.31;5022909;28;20037;-74
2022/12/07 07:33:37;;;;;;;6.22;3.13;;;;;;;1.97;100.00;100612.75;5020209;28;20046;-74
2022/12/07 07:36:04;;;;;;;7.50;1.90;;;;;;;2.02;100.00;100612.84;5017208;28;20113;-74
2022/12/07 07:38:31;;;;;;;10.23;2.80;;;;;;;2.06;100.00;100618.13;5039279;28;20055;-74
2022/12/07 07:40:57;;;;;;;5.40;2.15;;;;;;;2.09;100.00;100619.94;5019433;28;20482;-73
2022/12/07 07:43:24;;;;;;;5.88;2.15;;;;;;;2.12;100.00;100622.56;5015828;28;20045;-73
2022/12/07 07:45:50;;;;;;;8.40;2.60;;;;;;;2.13;100.00;100616.56;5032754;28;20083;-73
2022/12/07 07:48:17;;;;;;;5.72;2.30;;;;;;;2.17;100.00;100626.16;5035991;28;20060;-74
2022/12/07 07:50:43;;;;;;;3.35;2.17;;;;;;;2.20;100.00;100620.19;5019852;28;20080;-73
2022/12/07 07:53:10;;;;;;;4.45;1.88;;;;;;;2.21;100.00;100622.78;5019355;28;20053;-74
2022/12/07 07:55:36;;;;;;;3.63;1.83;;;;;;;2.26;100.00;100617.75;5019966;28;20782;-75
2022/12/07 07:58:03;;;;;;;5.43;1.95;;;;;;;2.22;100.00;100618.53;5035026;28;20132;-73
2022/12/07 08:00:29;;;;;;;2.63;1.80;;;;;;;2.19;100.00;100616.75;5019311;28;20037;-75
2022/12/07 08:02:56;;;;;;;5.07;2.03;;;;;;;2.17;100.00;100620.97;5016255;28;20046;-75
2022/12/07 08:05:22;;;;;;;3.38;1.83;;;;;;;2.16;100.00;100619.22;5019206;28;20045;-73
2022/12/07 08:07:49;;;;;;;4.63;1.23;;;;;;;2.18;100.00;100625.31;5015892;28;20523;-74
2022/12/07 08:10:15;;;;;;;6.78;1.70;;;;;;;2.20;100.00;100623.63;5036586;28;20400;-74
2022/12/07 08:15:25;;;;;;;4.43;1.30;;;;;;;2.27;100.00;100619.50;5005629;28;20093;-73
2022/12/07 08:17:51;;;;;;;3.22;1.33;;;;;;;2.32;100.00;100620.47;5020742;28;20499;-74
2022/12/07 08:20:18;;;;;;;6.22;2.17;;;;;;;2.36;100.00;100622.31;5010371;28;20055;-73
2022/12/07 08:22:44;;;;;;;4.40;1.50;;;;;;;2.43;100.00;100625.91;5019705;28;20083;-73
2022/12/07 08:25:11;;;;;;;8.27;1.98;;;;;;;2.45;100.00;100619.06;5016988;28;20046;-73
2022/12/07 08:27:37;;;;;;;6.28;2.63;;;;;;;2.46;100.00;100615.63;5032751;28;20459;-74
2022/12/07 08:30:05;;;;;;;7.70;2.88;;;;;;;2.48;100.00;100614.84;5013196;28;20042;-75
2022/12/07 08:32:31;;;;;;;8.43;1.83;;;;;;;2.50;100.00;100620.03;5032136;28;20042;-74
2022/12/07 08:34:57;;;;;;;6.28;1.67;;;;;;;2.48;100.00;100629.47;5001896;28;20049;-73
2022/12/07 08:37:24;;;;;;;3.00;1.20;;;;;;;2.48;100.00;100622.59;5016244;28;20049;-74
2022/12/07 08:39:50;;;;;;;2.38;1.38;;;;;;;2.53;100.00;100619.22;4998917;28;20061;-75
2022/12/07 08:42:17;;;;;;;2.40;0.73;;;;;;;2.56;100.00;100627.94;5015092;28;20120;-73
2022/12/07 08:44:44;;;;;;;2.30;1.00;;;;;;;2.60;100.00;100629.75;5037266;28;20496;-73
2022/12/07 08:47:11;;;;;;;6.07;1.40;;;;;;;2.63;100.00;100626.38;5034937;28;20041;-76
2022/12/07 08:49:44;;;;;;;2.70;0.90;;;;;;;2.64;100.00;100621.22;5014888;28;20042;-75
2022/12/07 08:52:11;;;;;;;4.40;1.00;;;;;;;2.71;100.00;100630.03;5031964;28;20658;-75
2022/12/07 08:54:40;;;;;;;7.78;1.02;;;;;;;2.67;100.00;100630.75;5020205;28;20045;-74
2022/12/07 08:57:08;;;;;;;5.30;1.52;;;;;;;2.75;100.00;100636.09;5014474;28;20049;-74
2022/12/07 08:59:37;;;;;;;5.75;1.40;;;;;;;2.72;100.00;100636.91;5029220;28;20042;-73
2022/12/07 09:02:05;;;;;;;4.15;1.00;;;;;;;2.69;100.00;100643.75;5031151;28;20491;-73
2022/12/07 09:04:31;;;;;;;9.75;1.58;;;;;;;2.71;100.00;100636.88;5021064;28;20419;-74
2022/12/07 09:06:58;;;;;;;8.38;2.33;;;;;;;2.69;100.00;100639.44;5019758;28;20045;-74
2022/12/07 09:09:25;;;;;;;1.60;1.50;;;;;;;2.69;100.00;100633.41;5018601;28;20069;-73
2022/12/07 09:11:51;;;;;;;1.02;0.60;;;;;;;2.68;100.00;100639.41;5032727;28;20049;-75
2022/12/07 09:14:18;;;;;;;6.35;0.70;;;;;;;2.71;100.00;100644.63;5016306;28;20407;-75
2022/12/07 09:16:45;;;;;;;4.55;1.13;;;;;;;2.72;100.00;100638.63;5032989;28;20126;-74
2022/12/07 09:19:11;;;;;;;2.38;0.80;;;;;;;2.76;100.00;100646.47;5016946;28;20037;-75
2022/12/07 09:21:38;;;;;;;5.75;1.00;;;;;;;2.79;100.00;100641.41;5019804;28;20036;-76
2022/12/07 09:24:04;;;;;;;1.65;0.95;;;;;;;2.82;100.00;100638.00;5016501;28;20053;-75
2022/12/07 09:26:31;;;;;;;1.88;0.70;;;;;;;2.90;100.00;100635.59;5018288;28;20451;-75
2022/12/07 09:28:57;;;;;;;8.60;0.80;;;;;;;2.99;100.00;100633.22;5032680;28;20163;-75
2022/12/07 09:31:24;;;;;;;3.05;0.75;;;;;;;3.09;100.00;100627.38;5017620;28;20053;-73
2022/12/07 09:33:56;;;;;;;2.00;0.77;;;;;;;3.14;100.00;100630.94;5033764;28;20759;-74
2022/12/07 09:36:22;;;;;;;9.90;2.17;;;;;;;3.19;100.00;100627.59;5032071;28;20053;-74
2022/12/07 09:38:49;;;;;;;1.33;0.80;;;;;;;3.16;100.00;100622.34;5014339;28;20818;-74
2022/12/07 09:41:16;;;;;;;3.33;1.00;;;;;;;3.11;100.00;100617.94;5016101;28;20037;-75
2022/12/07 09:43:42;;;;;;;3.05;0.90;;;;;;;3.09;100.00;100629.09;5014484;28;20071;-74
2022/12/07 09:46:14;;;;;;;2.92;0.50;;;;;;;3.14;100.00;100622.31;5031982;28;20041;-84
2022/12/07 09:48:42;;;;;;;1.35;0.80;;;;;;;3.27;100.00;100631.19;5011786;28;20071;-74
2022/12/07 09:51:22;;;;;;;9.05;1.55;;;;;;;3.38;100.00;100631.44;5016010;28;20112;-74
2022/12/07 09:53:50;;;;;;;2.72;0.77;;;;;;;3.54;100.00;100617.94;5010750;28;20891;-77
2022/12/07 09:56:20;;;;;;;3.72;0.50;;;;;;;3.62;100.00;100618.97;5016064;28;20045;-75
2022/12/07 09:58:47;;;;;;;7.65;0.93;;;;;;;3.74;100.00;100617.44;5017314;28;20041;-73
2022/12/07 10:01:18;;;;;;;6.38;0.90;;;;;;;3.77;100.00;100613.19;4999832;28;20049;-74
2022/12/07 10:03:54;;;;;;;1.55;0.60;;;;;;;3.66;100.00;100614.69;5034298;28;20049;-74
2022/12/07 10:06:21;;;;;;;2.20;0.60;;;;;;;3.46;100.00;100615.19;5016742;28;20053;-73
2022/12/07 10:08:48;;;;;;;1.25;1.13;;;;;;;3.41;100.00;100621.13;5010351;28;20131;-73
2022/12/07 10:11:15;;;;;;;4.03;0.95;;;;;;;3.39;100.00;100621.09;5000400;28;20719;-73
2022/12/07 10:13:53;;;;;;;3.50;0.77;;;;;;;3.56;100.00;100610.19;5013452;28;20049;-73
2022/12/07 10:16:27;;;;;;;3.38;1.10;;;;;;;3.56;100.00;100616.25;5033963;28;20049;-75
2022/12/07 10:18:54;;;;;;;0.95;0.50;;;;;;;3.59;100.00;100613.72;5030670;28;20700;-76
2022/12/07 10:21:28;;;;;;;2.72;0.60;;;;;;;3.62;100.00;100615.50;5017491;28;20041;-73
2022/12/07 10:24:15;;;;;;;1.42;0.80;;;;;;;3.66;100.00;100617.28;5016820;28;20061;-76
2022/12/07 10:26:47;;;;;;;1.90;0.63;;;;;;;3.66;100.00;100616.41;5025946;28;20140;-74
2022/12/07 10:29:33;;;;;;;8.48;1.10;;;;;;;3.60;100.00;100610.28;5028339;28;20049;-73
2022/12/07 10:32:14;;;;;;;5.90;1.25;;;;;;;3.48;100.00;100617.81;5029005;28;20048;-74
2022/12/07 10:34:41;;;;;;;3.88;1.33;;;;;;;3.41;100.00;100616.81;5028043;28;20046;-74
2022/12/07 10:37:17;;;;;;;1.38;0.60;;;;;;;3.41;100.00;100624.56;5014611;28;20091;-74
2022/12/07 10:39:58;;;;;;;4.18;0.82;;;;;;;3.39;100.00;100622.81;5008661;28;20662;-75
2022/12/07 10:42:31;;;;;;;4.85;1.10;;;;;;;3.38;100.00;100610.72;5026119;28;20045;-75
2022/12/07 10:45:14;;;;;;;4.68;1.30;;;;;;;3.44;100.00;100616.00;4995176;28;20154;-75
2022/12/07 10:47:56;;;;;;;4.43;1.20;;;;;;;3.49;100.00;100604.03;5029422;28;20041;-74
2022/12/07 10:51:03;;;;;;;2.22;1.00;;;;;;;3.53;100.00;100611.00;5027543;28;20053;-77
2022/12/07 10:54:00;;;;;;;8.95;0.85;;;;;;;3.50;100.00;100616.13;5013726;28;20392;-74
2022/12/07 10:56:44;;;;;;;5.45;1.13;;;;;;;3.47;100.00;100608.31;5033294;28;20134;-82
2022/12/07 10:59:16;;;;;;;2.83;0.80;;;;;;;3.45;100.00;100613.44;5029944;28;20146;-74
2022/12/07 11:01:58;;;;;;;9.20;1.40;;;;;;;3.37;100.00;100598.63;5027893;28;20049;-75
2022/12/07 11:04:47;;;;;;;1.30;0.90;;;;;;;3.28;100.00;100595.00;5014877;28;20144;-75
2022/12/07 11:07:43;;;;;;;5.25;0.93;;;;;;;3.20;100.00;100591.38;5035744;28;20057;-74
2022/12/07 11:10:28;;;;;;;3.30;0.90;;;;;;;3.12;100.00;100604.16;5014413;28;20049;-75
2022/12/07 11:13:30;;;;;;;3.70;1.38;;;;;;;3.03;100.00;100601.41;5015032;28;20132;-74
2022/12/07 11:16:19;;;;;;;2.05;0.82;;;;;;;2.96;100.00;100604.72;5014338;28;20061;-77
2022/12/07 11:19:14;;;;;;;2.00;0.57;;;;;;;2.83;100.00;100618.19;4996059;28;20045;-75
2022/12/07 11:21:59;;;;;;;;;;;;;;;2.51;100.00;100618.34;5030811;28;20401;-77
2022/12/07 11:24:57;;;;;;;5.10;2.30;;;;;;;2.16;100.00;100611.47;5030416;28;19921;-75
2022/12/07 11:27:35;;;;;;;0.82;0.20;;;;;;;1.97;100.00;100618.78;5033852;28;20048;-77
2022/12/07 11:30:15;;;;;;;2.63;0.52;;;;;;;1.90;100.00;100605.66;5032510;28;20051;-75
2022/12/07 11:33:16;;;;;;;0.30;0.30;;;;;;;1.89;100.00;100601.34;5015706;28;20056;-75
2022/12/07 11:36:22;;;;;;;1.85;0.90;;;;;;;1.91;100.00;100599.69;5030479;28;20080;-75
2022/12/07 11:38:56;;;;;;;2.60;0.90;;;;;;;1.91;100.00;100595.38;5019355;28;20045;-75
2022/12/07 11:41:36;;;;;;;4.93;1.27;;;;;;;1.93;100.00;100590.25;5015861;28;20064;-74
2022/12/07 11:44:09;;;;;;;1.70;0.88;;;;;;;1.97;100.00;100576.59;5017085;28;20048;-76
2022/12/07 11:46:59;;;;;;;0.90;0.85;;;;;;;1.98;100.00;100565.41;5033024;28;20503;-76